Terminal Aerodrome Forecast
Issued by NWS

Home | Current Version | Previous Version | Text Only | Print | Product List | Glossary On
Versions: 1 2 3 4 5 6 7 8 9 10 11 12 13 14 15 16 17 18 19 20 21 22 23
237
FTUS46 KMFR 202340
TAFOTH
TAF
KOTH 202340Z 2100/2124 16010G16KT P6SM VCSH SCT030 OVC040
     FM211300 21018G25KT P6SM -RA BKN025 OVC040
     FM212000 24020G30KT P6SM -RA SCT030 OVC050=

USA.gov is the U.S. government's official web portal to all federal, state and local government web resources and services.